sensor_id;sensor_type;location;lat;lon;timestamp;temperature;humidity
9095;DHT22;4583;49.796;9.902;2022-07-23T00:05:29;23.60;73.10
9095;DHT22;4583;49.796;9.902;2022-07-23T00:15:31;23.50;73.50
9095;DHT22;4583;49.796;9.902;2022-07-23T00:25:33;23.40;74.20
9095;DHT22;4583;49.796;9.902;2022-07-23T00:35:37;23.30;74.80
9095;DHT22;4583;49.796;9.902;2022-07-23T00:45:41;23.30;76.00
9095;DHT22;4583;49.796;9.902;2022-07-23T00:55:43;23.30;76.30
9095;DHT22;4583;49.796;9.902;2022-07-23T01:05:45;23.10;77.00
9095;DHT22;4583;49.796;9.902;2022-07-23T01:15:47;23.10;78.00
9095;DHT22;4583;49.796;9.902;2022-07-23T01:25:52;23.00;78.60
9095;DHT22;4583;49.796;9.902;2022-07-23T01:35:54;22.90;78.80
9095;DHT22;4583;49.796;9.902;2022-07-23T01:45:55;22.80;80.00
9095;DHT22;4583;49.796;9.902;2022-07-23T01:55:58;22.90;80.40
9095;DHT22;4583;49.796;9.902;2022-07-23T02:06:00;22.80;80.80
9095;DHT22;4583;49.796;9.902;2022-07-23T02:16:02;22.80;81.10
9095;DHT22;4583;49.796;9.902;2022-07-23T02:26:04;22.80;81.20
9095;DHT22;4583;49.796;9.902;2022-07-23T02:36:06;22.70;81.50
9095;DHT22;4583;49.796;9.902;2022-07-23T02:46:08;22.60;81.90
9095;DHT22;4583;49.796;9.902;2022-07-23T02:56:10;22.50;82.10
9095;DHT22;4583;49.796;9.902;2022-07-23T03:06:11;22.40;82.70
9095;DHT22;4583;49.796;9.902;2022-07-23T03:16:13;22.40;83.20
9095;DHT22;4583;49.796;9.902;2022-07-23T03:26:15;22.20;83.60
9095;DHT22;4583;49.796;9.902;2022-07-23T03:36:17;22.20;84.20
9095;DHT22;4583;49.796;9.902;2022-07-23T03:46:22;22.30;84.60
9095;DHT22;4583;49.796;9.902;2022-07-23T03:56:23;22.20;84.70
9095;DHT22;4583;49.796;9.902;2022-07-23T04:06:25;22.30;84.70
9095;DHT22;4583;49.796;9.902;2022-07-23T04:16:27;22.20;84.20
9095;DHT22;4583;49.796;9.902;2022-07-23T04:26:30;22.10;84.60
9095;DHT22;4583;49.796;9.902;2022-07-23T04:36:32;22.10;85.30
9095;DHT22;4583;49.796;9.902;2022-07-23T04:46:33;22.20;85.90
9095;DHT22;4583;49.796;9.902;2022-07-23T04:56:35;22.10;86.60
9095;DHT22;4583;49.796;9.902;2022-07-23T05:06:37;22.10;87.10
9095;DHT22;4583;49.796;9.902;2022-07-23T05:16:39;22.30;87.70
9095;DHT22;4583;49.796;9.902;2022-07-23T05:26:40;22.40;87.20
9095;DHT22;4583;49.796;9.902;2022-07-23T05:36:42;22.40;87.70
9095;DHT22;4583;49.796;9.902;2022-07-23T05:46:44;22.40;88.10
9095;DHT22;4583;49.796;9.902;2022-07-23T05:56:47;22.50;89.00
9095;DHT22;4583;49.796;9.902;2022-07-23T06:06:48;22.50;90.00
9095;DHT22;4583;49.796;9.902;2022-07-23T06:16:50;22.20;90.90
9095;DHT22;4583;49.796;9.902;2022-07-23T06:26:52;22.30;91.70
9095;DHT22;4583;49.796;9.902;2022-07-23T06:36:54;22.30;92.20
9095;DHT22;4583;49.796;9.902;2022-07-23T06:46:56;22.40;92.50
9095;DHT22;4583;49.796;9.902;2022-07-23T06:56:58;22.30;92.60
9095;DHT22;4583;49.796;9.902;2022-07-23T07:07:00;22.00;93.30
9095;DHT22;4583;49.796;9.902;2022-07-23T07:17:01;21.90;94.20
9095;DHT22;4583;49.796;9.902;2022-07-23T07:27:03;21.90;94.50
9095;DHT22;4583;49.796;9.902;2022-07-23T07:37:05;21.90;94.80
9095;DHT22;4583;49.796;9.902;2022-07-23T07:47:07;22.00;95.30
9095;DHT22;4583;49.796;9.902;2022-07-23T07:57:09;22.20;95.40
9095;DHT22;4583;49.796;9.902;2022-07-23T08:07:11;22.30;95.60
9095;DHT22;4583;49.796;9.902;2022-07-23T08:17:13;22.70;95.30
9095;DHT22;4583;49.796;9.902;2022-07-23T08:27:16;22.90;94.90
9095;DHT22;4583;49.796;9.902;2022-07-23T08:37:17;23.10;94.50
9095;DHT22;4583;49.796;9.902;2022-07-23T08:47:19;23.10;94.20
9095;DHT22;4583;49.796;9.902;2022-07-23T08:57:21;23.30;93.90
9095;DHT22;4583;49.796;9.902;2022-07-23T09:07:23;23.40;93.40
9095;DHT22;4583;49.796;9.902;2022-07-23T09:17:25;23.30;92.90
9095;DHT22;4583;49.796;9.902;2022-07-23T09:27:52;23.30;92.60
9095;DHT22;4583;49.796;9.902;2022-07-23T09:38:02;23.50;91.90
9095;DHT22;4583;49.796;9.902;2022-07-23T09:48:12;23.30;91.70
9095;DHT22;4583;49.796;9.902;2022-07-23T09:58:15;23.70;91.60
9095;DHT22;4583;49.796;9.902;2022-07-23T10:08:19;24.00;91.20
9095;DHT22;4583;49.796;9.902;2022-07-23T10:18:21;24.50;90.40
9095;DHT22;4583;49.796;9.902;2022-07-23T10:28:46;24.80;89.30
9095;DHT22;4583;49.796;9.902;2022-07-23T10:39:04;25.20;87.80
9095;DHT22;4583;49.796;9.902;2022-07-23T10:49:27;25.30;85.10
9095;DHT22;4583;49.796;9.902;2022-07-23T10:59:31;25.40;82.30
9095;DHT22;4583;49.796;9.902;2022-07-23T11:09:41;25.60;81.00
9095;DHT22;4583;49.796;9.902;2022-07-23T11:40:27;26.10;77.10
9095;DHT22;4583;49.796;9.902;2022-07-23T11:50:29;26.40;76.60
9095;DHT22;4583;49.796;9.902;2022-07-23T12:00:32;26.70;75.70
9095;DHT22;4583;49.796;9.902;2022-07-23T12:10:43;27.10;74.10
9095;DHT22;4583;49.796;9.902;2022-07-23T12:20:53;26.90;72.00
9095;DHT22;4583;49.796;9.902;2022-07-23T12:30:57;27.30;71.00
9095;DHT22;4583;49.796;9.902;2022-07-23T12:40:59;27.50;68.50
9095;DHT22;4583;49.796;9.902;2022-07-23T12:51:06;27.90;65.50
9095;DHT22;4583;49.796;9.902;2022-07-23T13:01:09;27.60;64.10
9095;DHT22;4583;49.796;9.902;2022-07-23T13:11:12;27.60;63.30
9095;DHT22;4583;49.796;9.902;2022-07-23T13:21:15;27.70;61.70
9095;DHT22;4583;49.796;9.902;2022-07-23T13:31:18;27.80;59.80
9095;DHT22;4583;49.796;9.902;2022-07-23T13:41:20;27.80;59.50
9095;DHT22;4583;49.796;9.902;2022-07-23T13:51:21;28.00;58.40
9095;DHT22;4583;49.796;9.902;2022-07-23T14:01:26;28.10;58.20
9095;DHT22;4583;49.796;9.902;2022-07-23T14:11:39;28.00;58.20
9095;DHT22;4583;49.796;9.902;2022-07-23T14:21:41;27.90;57.40
9095;DHT22;4583;49.796;9.902;2022-07-23T14:31:45;28.10;57.10
9095;DHT22;4583;49.796;9.902;2022-07-23T14:41:48;28.50;55.70
9095;DHT22;4583;49.796;9.902;2022-07-23T14:51:50;28.50;54.90
9095;DHT22;4583;49.796;9.902;2022-07-23T15:01:53;29.00;53.50
9095;DHT22;4583;49.796;9.902;2022-07-23T15:11:55;28.80;52.40
9095;DHT22;4583;49.796;9.902;2022-07-23T15:21:58;28.60;53.10
9095;DHT22;4583;49.796;9.902;2022-07-23T15:32:03;28.50;52.60
9095;DHT22;4583;49.796;9.902;2022-07-23T15:42:05;28.60;52.00
9095;DHT22;4583;49.796;9.902;2022-07-23T15:52:14;28.50;51.80
9095;DHT22;4583;49.796;9.902;2022-07-23T16:02:16;28.40;50.80
9095;DHT22;4583;49.796;9.902;2022-07-23T16:12:19;28.30;50.20
9095;DHT22;4583;49.796;9.902;2022-07-23T16:22:21;28.40;50.10
9095;DHT22;4583;49.796;9.902;2022-07-23T16:32:22;28.50;49.80
9095;DHT22;4583;49.796;9.902;2022-07-23T16:42:24;28.70;49.10
9095;DHT22;4583;49.796;9.902;2022-07-23T16:52:26;28.40;49.00
9095;DHT22;4583;49.796;9.902;2022-07-23T17:02:28;28.20;48.30
9095;DHT22;4583;49.796;9.902;2022-07-23T17:12:30;28.00;48.00
9095;DHT22;4583;49.796;9.902;2022-07-23T17:22:32;28.00;48.20
9095;DHT22;4583;49.796;9.902;2022-07-23T17:32:34;27.90;47.90
9095;DHT22;4583;49.796;9.902;2022-07-23T17:42:36;27.80;48.30
9095;DHT22;4583;49.796;9.902;2022-07-23T17:52:46;27.60;48.40
9095;DHT22;4583;49.796;9.902;2022-07-23T18:02:48;27.60;49.60
9095;DHT22;4583;49.796;9.902;2022-07-23T18:12:50;27.50;52.00
9095;DHT22;4583;49.796;9.902;2022-07-23T18:22:52;27.30;51.80
9095;DHT22;4583;49.796;9.902;2022-07-23T18:32:54;27.00;52.10
9095;DHT22;4583;49.796;9.902;2022-07-23T18:42:56;26.80;52.70
9095;DHT22;4583;49.796;9.902;2022-07-23T18:52:59;26.50;53.20
9095;DHT22;4583;49.796;9.902;2022-07-23T19:03:02;26.40;53.80
9095;DHT22;4583;49.796;9.902;2022-07-23T19:13:08;26.20;54.30
9095;DHT22;4583;49.796;9.902;2022-07-23T19:23:10;26.00;55.00
9095;DHT22;4583;49.796;9.902;2022-07-23T19:33:12;25.90;55.50
9095;DHT22;4583;49.796;9.902;2022-07-23T19:43:13;25.80;55.70
9095;DHT22;4583;49.796;9.902;2022-07-23T19:53:15;25.60;55.90
9095;DHT22;4583;49.796;9.902;2022-07-23T20:03:17;25.50;56.30
9095;DHT22;4583;49.796;9.902;2022-07-23T20:13:20;25.40;56.70
9095;DHT22;4583;49.796;9.902;2022-07-23T20:23:22;25.20;57.00
9095;DHT22;4583;49.796;9.902;2022-07-23T20:33:24;25.00;58.30
9095;DHT22;4583;49.796;9.902;2022-07-23T20:43:26;24.70;59.80
9095;DHT22;4583;49.796;9.902;2022-07-23T20:53:28;24.50;60.30
9095;DHT22;4583;49.796;9.902;2022-07-23T21:03:29;24.40;60.70
9095;DHT22;4583;49.796;9.902;2022-07-23T21:13:32;24.20;61.30
9095;DHT22;4583;49.796;9.902;2022-07-23T21:23:46;23.90;61.70
9095;DHT22;4583;49.796;9.902;2022-07-23T21:33:53;23.80;62.80
9095;DHT22;4583;49.796;9.902;2022-07-23T21:43:56;23.60;63.80
9095;DHT22;4583;49.796;9.902;2022-07-23T21:53:58;23.40;64.80
9095;DHT22;4583;49.796;9.902;2022-07-23T22:04:00;23.20;65.30
9095;DHT22;4583;49.796;9.902;2022-07-23T22:14:03;23.00;65.60
9095;DHT22;4583;49.796;9.902;2022-07-23T22:24:05;22.80;66.10
9095;DHT22;4583;49.796;9.902;2022-07-23T22:34:06;22.70;66.90
9095;DHT22;4583;49.796;9.902;2022-07-23T22:44:08;22.50;67.80
9095;DHT22;4583;49.796;9.902;2022-07-23T22:54:10;22.30;68.40
9095;DHT22;4583;49.796;9.902;2022-07-23T23:04:11;22.10;69.30
9095;DHT22;4583;49.796;9.902;2022-07-23T23:14:14;22.00;70.30
9095;DHT22;4583;49.796;9.902;2022-07-23T23:24:16;22.10;71.20
9095;DHT22;4583;49.796;9.902;2022-07-23T23:34:18;22.10;71.60
9095;DHT22;4583;49.796;9.902;2022-07-23T23:44:20;22.00;71.90
9095;DHT22;4583;49.796;9.902;2022-07-23T23:54:23;21.80;72.20
